Meridianville, AL (35759)

1:54 PM CST on November 27, 2014 (GMT -0600)
Huntsville Madison | Change Station
CLOSE
Current Station
Airport
Location: Huntsville Madison,
Elevation: 755 ft
Nearby Weather Stations

Elev 755 ft 34.86 °N, 86.56 °W | Updated 19 minutes ago

Overcast
Overcast
41 °F
Feels Like 36 °F
N
8
Wind Variable Wind from NNW

Today
High -- | Low -- °F
--% Chance of Precip.
Yesterday
High -- | Low -- °F
Precip. -- in
6:31 AM 4:35 PM
Waxing Crescent, 32% visible
Pressure 30.37 in
Visibility 10.0 miles
Clouds Overcast 3800 ft
Windchill 36 °F
Dew Point 25 °F
Humidity 53%
Rainfall 0.00 in
Snow Depth Not available.
UV 1 out of 12
Pollen .30 out of 12
Air Quality Not available.
Flu Activity Not available.
METAR KMDQ 271935Z AUTO 33007KT 10SM OVC038 05/M04 A3037 RMK AO2

More Conditions Fewer Conditions

Pressure 30.37 in
Visibility 10.0 miles
Clouds Overcast 3800 ft
Windchill 36 °F
Dew Point 25 °F
Humidity 53%
Rainfall 0.00 in
Snow Depth Not available.
UV 1 out of 12
Pollen .30 out of 12
Air Quality Not available.
Flu Activity Not available.
METAR KMDQ 271935Z AUTO 33007KT 10SM OVC038 05/M04 A3037 RMK AO2

More Conditions Fewer Conditions

10-Day Weather Forecast

Almanac

Astronomy

Nov. 27, 2014 Rise Set
Actual Time
Civil Twilight
Nautical Twilight
Astronomical Twilight
Moon
Length of Visible Light
Length of Day
Tomorrow will be .
, % of the Moon is Illuminated

Today's Extremes

State Highs State Lows

Community

WunderPhotos

Upload Photos

1,774,094 photos uploaded!

WunderBlogs® & News

Nearby

Air Quality

  Air Quality AQ Index Pollutant
Not available.

Snow Depth

Station Depth Elevation

Earthquake Activity

City Distance Mag. Time & Date
Minimum magnitude displayed is 2.5.

Coastal Water Temperatures

Place Temperature

Nearby Weather Stations